Time;durP1;ratioP1;P1;durP2;ratioP2;P2;SDS_P1;SDS_P2;PMS_P1;PMS_P2;Temp;Humidity;BMP_temperature;BMP_pressure;BME280_temperature;BME280_humidity;BME280_pressure;Samples;Min_cycle;Max_cycle;Signal;HPM_P1;HPM_P2
2023/12/16 00:00:12;;;;;;;10.50;9.03;;;;;;;4.25;100.00;97839.56;7394720;19;20369;-91
2023/12/16 00:02:39;;;;;;;12.67;9.80;;;;;;;4.40;100.00;97878.97;7393229;19;20416;-90
2023/12/16 00:05:08;;;;;;;11.77;9.00;;;;;;;4.78;100.00;97928.06;7401432;19;20455;-89
2023/12/16 00:07:35;;;;;;;13.60;9.97;;;;;;;4.72;100.00;97933.34;7401398;19;20405;-90
2023/12/16 00:10:03;;;;;;;15.00;10.10;;;;;;;4.41;100.00;97890.94;7399788;19;20388;-90
2023/12/16 00:12:31;;;;;;;13.43;10.47;;;;;;;4.25;100.00;97856.97;7399035;19;20433;-90
2023/12/16 00:14:58;;;;;;;15.50;9.80;;;;;;;5.20;100.00;97993.16;7401584;19;20398;-89
2023/12/16 00:17:26;;;;;;;17.67;10.77;;;;;;;4.31;100.00;97845.69;7400938;19;20381;-90
2023/12/16 00:19:54;;;;;;;16.87;12.83;;;;;;;4.67;100.00;97902.03;7400742;19;20401;-90
2023/12/16 00:22:21;;;;;;;17.03;11.67;;;;;;;4.60;100.00;97878.69;7399068;19;20388;-90
2023/12/16 00:24:49;;;;;;;14.60;11.17;;;;;;;4.72;100.00;97883.94;7400723;19;20356;-90
2023/12/16 00:27:16;;;;;;;12.90;10.07;;;;;;;4.63;100.00;97854.84;7400578;19;20377;-90
2023/12/16 00:29:44;;;;;;;14.30;11.47;;;;;;;4.48;100.00;97813.63;7399805;19;20387;-90
2023/12/16 00:32:11;;;;;;;14.90;11.13;;;;;;;5.03;100.00;97917.50;7398662;19;20428;-91
2023/12/16 00:34:39;;;;;;;14.07;10.37;;;;;;;4.73;100.00;97878.50;7400780;19;20377;-90
2023/12/16 00:37:08;;;;;;;12.33;8.87;;;;;;;4.69;100.00;97894.78;7400093;19;20432;-90
2023/12/16 00:39:35;;;;;;;12.57;9.70;;;;;;;4.71;100.00;97918.75;7398099;19;20428;-90
2023/12/16 00:42:03;;;;;;;13.53;9.27;;;;;;;4.41;100.00;97885.75;7399329;19;20424;-91
2023/12/16 00:44:31;;;;;;;14.30;10.97;;;;;;;4.33;100.00;97873.03;7400531;19;20385;-90
2023/12/16 00:46:59;;;;;;;15.77;10.93;;;;;;;5.07;100.00;97939.50;7399943;19;20390;-90
2023/12/16 00:49:27;;;;;;;11.77;8.60;;;;;;;4.51;100.00;97851.44;7399399;19;20460;-90
2023/12/16 00:51:58;;;;;;;13.83;10.30;;;;;;;4.49;100.00;97866.44;7398657;19;20905;-90
2023/12/16 00:54:26;;;;;;;13.90;9.20;;;;;;;4.73;100.00;97917.53;7399827;19;20369;-91
2023/12/16 00:56:53;;;;;;;13.03;10.80;;;;;;;4.60;100.00;97875.28;7399520;19;20396;-90
2023/12/16 00:59:22;;;;;;;17.50;12.00;;;;;;;4.64;100.00;97859.06;7399577;19;20876;-90
2023/12/16 01:02:00;;;;;;;13.67;10.73;;;;;;;5.28;100.00;97942.56;7398602;19;20389;-91
2023/12/16 01:04:29;;;;;;;12.90;10.63;;;;;;;4.90;100.00;97886.50;7401264;19;20384;-90
2023/12/16 01:07:07;;;;;;;20.70;10.20;;;;;;;4.59;100.00;97852.91;7400550;19;20394;-90
2023/12/16 01:09:36;;;;;;;14.80;10.23;;;;;;;5.51;100.00;97999.91;7400076;19;20379;-91
2023/12/16 01:12:09;;;;;;;12.43;9.87;;;;;;;5.06;100.00;97935.28;7399267;19;20709;-91
2023/12/16 01:14:50;;;;;;;13.90;11.10;;;;;;;4.60;100.00;97864.91;7400209;19;20360;-91
2023/12/16 01:17:24;;;;;;;13.50;10.37;;;;;;;4.92;100.00;97926.09;7400260;19;20377;-91
2023/12/16 01:19:56;;;;;;;14.13;10.50;;;;;;;4.60;100.00;97893.50;7400348;19;20949;-90
2023/12/16 01:22:30;;;;;;;16.80;10.97;;;;;;;4.61;100.00;97919.28;7397294;19;20459;-87
2023/12/16 01:24:58;;;;;;;10.77;8.63;;;;;;;4.37;100.00;97871.59;7398468;19;20383;-88
2023/12/16 01:27:25;;;;;;;13.90;9.70;;;;;;;4.32;100.00;97873.25;7399350;19;20418;-90
2023/12/16 01:29:53;;;;;;;12.67;9.20;;;;;;;4.55;100.00;97921.97;7398432;19;20377;-91
2023/12/16 01:32:20;;;;;;;12.90;8.87;;;;;;;4.58;100.00;97916.31;7397276;19;20477;-90
2023/12/16 01:34:48;;;;;;;18.07;10.37;;;;;;;5.12;100.00;97992.66;7398484;19;20404;-90
2023/12/16 01:37:15;;;;;;;15.70;10.80;;;;;;;4.66;100.00;97923.84;7398577;19;20464;-90
2023/12/16 01:39:43;;;;;;;12.73;10.60;;;;;;;4.35;100.00;97871.00;7396953;19;20430;-90
2023/12/16 01:42:10;;;;;;;15.10;10.93;;;;;;;4.65;100.00;97922.25;7396826;19;20372;-90
2023/12/16 01:44:38;;;;;;;11.97;9.37;;;;;;;4.34;100.00;97877.22;7398360;19;20700;-90
2023/12/16 01:47:06;;;;;;;16.20;10.77;;;;;;;4.42;100.00;97882.13;7397701;19;20381;-90
2023/12/16 01:49:34;;;;;;;13.07;11.77;;;;;;;4.20;100.00;97852.41;7398222;19;20408;-90
2023/12/16 01:52:02;;;;;;;13.50;10.73;;;;;;;4.55;100.00;97911.56;7397018;19;20455;-90
2023/12/16 01:54:29;;;;;;;15.70;11.70;;;;;;;4.30;100.00;97888.28;7397422;19;20389;-90
2023/12/16 01:56:59;;;;;;;16.53;12.33;;;;;;;4.60;100.00;97940.31;7398452;19;20388;-90
2023/12/16 01:59:27;;;;;;;22.60;12.20;;;;;;;4.52;100.00;97922.41;7397097;19;20384;-87
2023/12/16 02:01:55;;;;;;;17.90;14.23;;;;;;;4.53;100.00;97909.19;7398246;19;20417;-90
2023/12/16 02:04:23;;;;;;;16.73;12.87;;;;;;;4.34;100.00;97869.41;7397250;19;20360;-90
2023/12/16 02:06:50;;;;;;;14.30;11.93;;;;;;;4.25;100.00;97857.75;7397475;19;20372;-90
2023/12/16 02:09:19;;;;;;;13.73;11.77;;;;;;;4.61;100.00;97921.09;7397716;19;20380;-90
2023/12/16 02:11:47;;;;;;;15.53;9.43;;;;;;;4.68;100.00;97911.41;7394808;19;20407;-90
2023/12/16 02:14:15;;;;;;;12.63;10.87;;;;;;;4.44;100.00;97835.91;7397277;19;20388;-90
2023/12/16 02:16:42;;;;;;;19.50;11.07;;;;;;;4.84;100.00;97878.78;7397986;19;20369;-90
2023/12/16 02:19:23;;;;;;;12.87;10.30;;;;;;;5.06;100.00;97911.88;7397315;19;20381;-90
2023/12/16 02:21:51;;;;;;;10.87;9.50;;;;;;;4.20;100.00;97816.03;7396362;19;20937;-90
2023/12/16 02:24:19;;;;;;;14.20;10.37;;;;;;;4.42;100.00;97850.94;7398494;19;20381;-90
2023/12/16 02:26:47;;;;;;;11.70;9.17;;;;;;;4.32;100.00;97874.03;7396200;19;20927;-89
2023/12/16 02:29:15;;;;;;;9.83;8.63;;;;;;;4.59;100.00;97929.09;7396954;19;20372;-90
2023/12/16 02:31:44;;;;;;;13.90;9.67;;;;;;;4.58;100.00;97930.13;7395345;19;20416;-90
2023/12/16 02:34:12;;;;;;;11.47;8.30;;;;;;;4.55;100.00;97933.16;7396934;19;20384;-90
2023/12/16 02:36:40;;;;;;;14.70;9.10;;;;;;;4.70;100.00;97949.19;7396821;19;20876;-90
2023/12/16 02:39:07;;;;;;;14.60;8.63;;;;;;;4.25;100.00;97877.75;7395817;19;20384;-90
2023/12/16 02:41:35;;;;;;;11.10;8.70;;;;;;;3.79;100.00;97788.94;7396132;19;20412;-89
2023/12/16 02:44:03;;;;;;;12.20;9.67;;;;;;;3.91;100.00;97820.19;7397058;19;20361;-88
2023/12/16 02:46:30;;;;;;;13.60;9.00;;;;;;;4.81;100.00;97962.47;7398462;19;20853;-89
2023/12/16 02:48:58;;;;;;;11.90;9.83;;;;;;;4.56;100.00;97933.97;7396723;19;20357;-88
2023/12/16 02:51:26;;;;;;;11.23;7.93;;;;;;;4.09;100.00;97855.72;7395278;19;20409;-88
2023/12/16 02:53:53;;;;;;;14.00;11.03;;;;;;;3.58;100.00;97766.81;7396948;19;20504;-89
2023/12/16 02:56:21;;;;;;;15.97;8.77;;;;;;;3.44;100.00;97757.59;7396071;19;20408;-89
2023/12/16 02:58:50;;;;;;;14.03;11.07;;;;;;;4.47;100.00;97918.66;7395957;19;20379;-88
2023/12/16 03:01:17;;;;;;;14.27;10.27;;;;;;;3.95;100.00;97812.72;7395699;19;20404;-89
2023/12/16 03:03:45;;;;;;;18.40;11.27;;;;;;;4.32;100.00;97849.88;7396410;19;20369;-88
2023/12/16 03:06:12;;;;;;;11.30;10.10;;;;;;;3.80;100.00;97772.34;7396021;19;20388;-88
2023/12/16 03:08:40;;;;;;;14.40;9.97;;;;;;;4.65;100.00;97925.66;7396129;19;20416;-88
2023/12/16 03:11:07;;;;;;;11.40;9.33;;;;;;;4.93;100.00;97995.31;7395358;19;20401;-88
2023/12/16 03:13:35;;;;;;;15.70;9.97;;;;;;;4.00;100.00;97860.44;7396337;19;20409;-90
2023/12/16 03:16:03;;;;;;;14.23;8.47;;;;;;;4.05;100.00;97896.16;7396330;19;20367;-90
2023/12/16 03:18:30;;;;;;;13.73;9.00;;;;;;;3.36;100.00;97794.22;7396170;19;20384;-90
2023/12/16 03:20:58;;;;;;;14.03;10.63;;;;;;;4.29;100.00;97930.88;7395274;19;20412;-90
2023/12/16 03:23:25;;;;;;;13.50;9.97;;;;;;;4.30;100.00;97916.88;7395892;19;20377;-90
2023/12/16 03:25:52;;;;;;;13.00;10.20;;;;;;;4.19;100.00;97869.00;7396108;19;20870;-91
2023/12/16 03:28:20;;;;;;;11.53;8.67;;;;;;;4.17;100.00;97873.63;7395969;19;20395;-90
2023/12/16 03:30:47;;;;;;;12.60;8.93;;;;;;;4.51;100.00;97920.84;7394557;19;20392;-90
2023/12/16 03:33:15;;;;;;;9.87;8.83;;;;;;;4.61;100.00;97953.09;7395862;19;20745;-90
2023/12/16 03:35:43;;;;;;;12.37;9.73;;;;;;;4.40;100.00;97930.94;7395655;19;20663;-90
2023/12/16 03:38:10;;;;;;;14.83;10.40;;;;;;;4.16;100.00;97875.44;7397379;19;20492;-90
2023/12/16 03:40:38;;;;;;;14.03;9.73;;;;;;;4.33;100.00;97914.63;7402584;19;20380;-90
2023/12/16 03:43:05;;;;;;;13.10;8.87;;;;;;;4.22;100.00;97868.56;7402908;19;20386;-90
2023/12/16 03:45:33;;;;;;;17.77;10.17;;;;;;;4.39;100.00;97871.38;7402443;19;20380;-90
2023/12/16 03:48:00;;;;;;;12.97;9.47;;;;;;;4.17;100.00;97840.66;7403191;19;20406;-90
2023/12/16 03:50:28;;;;;;;13.47;10.23;;;;;;;4.66;100.00;97934.25;7401948;19;20447;-90
2023/12/16 03:52:56;;;;;;;14.33;8.67;;;;;;;4.27;100.00;97902.50;7404996;19;20396;-90
2023/12/16 03:55:23;;;;;;;12.60;9.97;;;;;;;4.43;100.00;97956.50;7409821;19;20376;-90
2023/12/16 03:57:51;;;;;;;11.80;9.63;;;;;;;4.10;100.00;97909.28;7409371;19;20397;-90
2023/12/16 04:00:18;;;;;;;12.63;10.03;;;;;;;3.75;100.00;97851.91;7407582;19;20384;-87
2023/12/16 04:02:46;;;;;;;16.97;11.90;;;;;;;4.05;100.00;97912.53;7400143;19;20780;-90
2023/12/16 04:05:14;;;;;;;16.47;11.40;;;;;;;3.99;100.00;97925.59;7401815;19;20389;-89
2023/12/16 04:07:41;;;;;;;18.70;11.10;;;;;;;4.76;100.00;98041.13;7402540;19;20377;-90
2023/12/16 04:10:16;;;;;;;14.53;10.87;;;;;;;4.25;100.00;97969.50;7401485;19;20388;-90
2023/12/16 04:12:58;;;;;;;16.50;12.07;;;;;;;4.01;100.00;97933.97;7399391;19;20404;-90
2023/12/16 04:15:26;;;;;;;12.70;9.83;;;;;;;4.52;100.00;97992.63;7401439;19;20377;-90
2023/12/16 04:17:54;;;;;;;19.20;12.73;;;;;;;4.39;100.00;97978.75;7401393;19;20888;-90
2023/12/16 04:20:22;;;;;;;17.87;11.60;;;;;;;3.69;100.00;97850.16;7401757;19;20396;-90
2023/12/16 04:22:49;;;;;;;14.37;11.47;;;;;;;4.70;100.00;97975.19;7399070;19;20361;-90
2023/12/16 04:25:16;;;;;;;19.17;11.10;;;;;;;4.81;100.00;97965.06;7401461;19;20393;-90
2023/12/16 04:27:44;;;;;;;19.33;11.60;;;;;;;4.66;100.00;97934.25;7401625;19;20369;-90
2023/12/16 04:30:11;;;;;;;13.00;9.47;;;;;;;5.01;100.00;98007.22;7400997;19;20392;-90
2023/12/16 04:32:39;;;;;;;13.90;10.37;;;;;;;4.80;100.00;97959.06;7398935;19;20419;-90
2023/12/16 04:35:07;;;;;;;16.97;10.37;;;;;;;4.63;100.00;97965.84;7401396;19;20373;-90
2023/12/16 04:37:34;;;;;;;11.77;8.60;;;;;;;4.67;100.00;97993.03;7400698;19;20702;-90
2023/12/16 04:40:02;;;;;;;14.70;10.13;;;;;;;4.66;100.00;97996.66;7398613;19;20389;-90
2023/12/16 04:42:30;;;;;;;13.07;10.50;;;;;;;4.18;100.00;97917.59;7401116;19;20397;-90
2023/12/16 04:44:57;;;;;;;13.40;9.70;;;;;;;4.39;100.00;97955.34;7400738;19;20466;-90
2023/12/16 04:47:25;;;;;;;15.83;10.30;;;;;;;4.48;100.00;97974.03;7400982;19;20452;-90
2023/12/16 04:49:52;;;;;;;13.00;9.80;;;;;;;4.24;100.00;97938.53;7399219;19;20386;-90
2023/12/16 04:52:19;;;;;;;16.50;10.07;;;;;;;4.55;100.00;97985.16;7398790;19;20906;-90
2023/12/16 04:54:47;;;;;;;12.83;11.53;;;;;;;4.41;100.00;97966.31;7400425;19;20708;-90
2023/12/16 04:57:14;;;;;;;11.83;10.43;;;;;;;4.32;100.00;97944.22;7400915;19;20401;-90
2023/12/16 04:59:42;;;;;;;21.03;11.87;;;;;;;4.40;100.00;97938.75;7400258;19;20894;-90
2023/12/16 05:02:09;;;;;;;20.60;11.73;;;;;;;4.34;100.00;97895.41;7399354;19;20424;-90
2023/12/16 05:04:37;;;;;;;18.47;11.70;;;;;;;4.37;100.00;97886.41;7400380;19;20490;-90
2023/12/16 05:07:04;;;;;;;18.13;12.40;;;;;;;4.49;100.00;97862.03;7400003;19;20379;-90
2023/12/16 05:09:32;;;;;;;17.10;13.00;;;;;;;5.02;100.00;97923.72;7399947;19;20369;-89
2023/12/16 05:11:59;;;;;;;20.87;12.60;;;;;;;5.25;100.00;97967.25;7398204;19;20416;-90
2023/12/16 05:14:31;;;;;;;15.60;12.87;;;;;;;4.91;100.00;97898.50;7400773;19;20410;-90
2023/12/16 05:17:00;;;;;;;22.33;13.33;;;;;;;5.18;100.00;97956.16;7399769;19;20412;-90
2023/12/16 05:19:28;;;;;;;20.27;13.23;;;;;;;4.92;100.00;97953.91;7399591;19;20389;-90
2023/12/16 05:21:55;;;;;;;21.00;13.13;;;;;;;4.54;100.00;97905.59;7398628;19;20899;-90
2023/12/16 05:24:23;;;;;;;17.13;12.90;;;;;;;4.65;100.00;97881.44;7399215;19;20373;-90
2023/12/16 05:26:50;;;;;;;15.00;10.53;;;;;;;5.30;100.00;97985.63;7401337;19;20357;-90
2023/12/16 05:29:18;;;;;;;16.90;12.50;;;;;;;5.00;100.00;97933.56;7399140;19;20379;-90
2023/12/16 05:31:45;;;;;;;21.83;13.60;;;;;;;4.80;100.00;97909.66;7398255;19;20404;-90
2023/12/16 05:34:13;;;;;;;16.53;13.27;;;;;;;5.51;100.00;98036.38;7399461;19;20385;-90
2023/12/16 05:36:40;;;;;;;19.07;13.30;;;;;;;5.07;100.00;97959.50;7398875;19;20368;-90
2023/12/16 05:39:09;;;;;;;18.83;13.17;;;;;;;5.17;100.00;98032.66;7398416;19;20438;-90
2023/12/16 05:41:40;;;;;;;18.43;12.77;;;;;;;4.72;100.00;97973.16;7397841;19;20408;-90
2023/12/16 05:44:08;;;;;;;19.60;12.70;;;;;;;4.70;100.00;97987.41;7398612;19;20380;-90
2023/12/16 05:46:36;;;;;;;18.77;14.17;;;;;;;4.76;100.00;97999.50;7398520;19;20380;-90
2023/12/16 05:49:03;;;;;;;16.77;12.80;;;;;;;4.78;100.00;97997.50;7399446;19;20381;-90
2023/12/16 05:51:39;;;;;;;15.63;12.27;;;;;;;4.22;100.00;97941.31;7397609;19;20472;-90
2023/12/16 05:54:09;;;;;;;23.93;14.30;;;;;;;4.54;100.00;97998.38;7398723;19;20389;-90
2023/12/16 05:56:37;;;;;;;19.67;14.43;;;;;;;4.56;100.00;98004.16;7398860;19;20385;-90
2023/12/16 05:59:04;;;;;;;19.97;13.70;;;;;;;4.59;100.00;97993.31;7398538;19;20389;-90
2023/12/16 06:01:32;;;;;;;16.60;13.57;;;;;;;4.47;100.00;97978.44;7395043;19;20408;-90
2023/12/16 06:03:59;;;;;;;17.23;12.27;;;;;;;3.84;100.00;97890.38;7399650;19;20373;-90
2023/12/16 06:06:27;;;;;;;18.60;12.40;;;;;;;4.29;100.00;97968.06;7398691;19;20392;-90
2023/12/16 06:08:54;;;;;;;17.60;13.80;;;;;;;4.28;100.00;97960.47;7399011;19;20385;-90
2023/12/16 06:11:23;;;;;;;19.33;12.60;;;;;;;4.17;100.00;97956.78;7396814;19;20440;-90
2023/12/16 06:13:50;;;;;;;18.80;11.57;;;;;;;4.94;100.00;98085.38;7398489;19;20412;-90
2023/12/16 06:16:19;;;;;;;21.67;12.67;;;;;;;4.21;100.00;97942.34;7398688;19;20369;-90
2023/12/16 06:18:49;;;;;;;17.43;12.27;;;;;;;4.77;100.00;97983.72;7398125;19;20369;-90
2023/12/16 06:21:16;;;;;;;24.53;15.37;;;;;;;4.28;100.00;97917.09;7397378;19;20479;-88
2023/12/16 06:23:44;;;;;;;23.10;14.97;;;;;;;4.57;100.00;97966.75;7399573;19;20373;-90
2023/12/16 06:26:11;;;;;;;22.60;13.23;;;;;;;4.50;100.00;97985.03;7397619;19;20364;-90
2023/12/16 06:28:39;;;;;;;18.50;12.83;;;;;;;4.68;100.00;98028.44;7397053;19;20404;-90
2023/12/16 06:31:14;;;;;;;21.20;14.10;;;;;;;4.46;100.00;97981.25;7396425;19;20400;-90
2023/12/16 06:33:42;;;;;;;18.57;12.97;;;;;;;4.24;100.00;97949.72;7397761;19;20381;-90
2023/12/16 06:36:10;;;;;;;17.63;12.97;;;;;;;5.17;100.00;98063.88;7397853;19;20388;-90
2023/12/16 06:38:37;;;;;;;20.80;14.60;;;;;;;4.32;100.00;97946.03;7396467;19;20417;-90
2023/12/16 06:41:05;;;;;;;19.50;14.37;;;;;;;4.41;100.00;97973.31;7396500;19;20403;-90
2023/12/16 06:43:34;;;;;;;18.50;13.00;;;;;;;4.85;100.00;98047.63;7398004;19;20389;-90
2023/12/16 06:46:01;;;;;;;18.10;12.70;;;;;;;4.49;100.00;97973.81;7396825;19;20383;-90
2023/12/16 06:48:28;;;;;;;19.73;12.23;;;;;;;4.25;100.00;97973.91;7397173;19;20376;-89
2023/12/16 06:50:57;;;;;;;18.97;13.00;;;;;;;4.18;100.00;97979.94;7396807;19;20452;-90
2023/12/16 06:53:25;;;;;;;24.20;13.47;;;;;;;4.01;100.00;97957.34;7396731;19;20373;-89
2023/12/16 06:55:53;;;;;;;22.70;14.90;;;;;;;4.68;100.00;98055.22;7396580;19;20389;-90
2023/12/16 06:58:21;;;;;;;23.03;14.57;;;;;;;4.89;100.00;98087.00;7396420;19;20392;-90
2023/12/16 07:00:48;;;;;;;20.40;14.93;;;;;;;4.65;100.00;98053.06;7396147;19;20450;-89
2023/12/16 07:03:16;;;;;;;18.93;12.37;;;;;;;4.18;100.00;97972.16;7396724;19;20365;-89
2023/12/16 07:05:43;;;;;;;26.27;16.37;;;;;;;4.10;100.00;97953.44;7396217;19;20381;-89
2023/12/16 07:08:13;;;;;;;25.63;15.60;;;;;;;4.09;100.00;97960.44;7395913;19;20478;-90
2023/12/16 07:10:40;;;;;;;33.33;22.33;;;;;;;4.63;100.00;98038.66;7396133;19;20384;-89
2023/12/16 07:13:08;;;;;;;30.40;19.57;;;;;;;4.30;100.00;97972.25;7399327;19;20368;-89
2023/12/16 07:15:35;;;;;;;29.07;19.27;;;;;;;4.61;100.00;97991.28;7404418;19;20368;-90
2023/12/16 07:18:06;;;;;;;27.03;19.90;;;;;;;4.47;100.00;97978.44;7404973;19;20384;-90
2023/12/16 07:20:38;;;;;;;23.63;17.83;;;;;;;4.41;100.00;97976.72;7405043;19;20384;-90
2023/12/16 07:23:08;;;;;;;23.97;18.07;;;;;;;4.77;100.00;98035.72;7404547;19;20381;-90
2023/12/16 07:25:43;;;;;;;30.23;19.87;;;;;;;5.11;100.00;98037.94;7404580;19;20397;-89
2023/12/16 07:28:20;;;;;;;32.83;19.10;;;;;;;4.78;100.00;98000.91;7404580;19;20376;-91
2023/12/16 07:30:49;;;;;;;22.80;16.40;;;;;;;4.96;100.00;98059.91;7405211;19;20464;-89
2023/12/16 07:33:19;;;;;;;23.87;19.03;;;;;;;4.52;100.00;97966.63;7402058;19;20405;-90
2023/12/16 07:35:53;;;;;;;27.23;17.63;;;;;;;4.95;100.00;98054.94;7404786;19;20401;-90
2023/12/16 07:38:21;;;;;;;22.40;15.40;;;;;;;5.34;100.00;98139.56;7402395;19;20885;-90
2023/12/16 07:40:49;;;;;;;34.83;17.33;;;;;;;4.83;100.00;98086.09;7402664;19;20385;-90
2023/12/16 07:43:16;;;;;;;38.10;23.10;;;;;;;4.47;100.00;98017.44;7402581;19;20385;-90
2023/12/16 07:45:44;;;;;;;33.93;23.17;;;;;;;4.60;100.00;98021.69;7402593;19;20389;-89
2023/12/16 07:48:11;;;;;;;27.23;19.60;;;;;;;4.50;100.00;98018.84;7403076;19;20388;-89
2023/12/16 07:50:39;;;;;;;30.10;19.63;;;;;;;4.61;100.00;98044.09;7402908;19;20417;-90
2023/12/16 07:53:07;;;;;;;34.83;26.87;;;;;;;4.22;100.00;97941.31;7400163;19;20380;-90
2023/12/16 07:55:34;;;;;;;33.90;23.07;;;;;;;5.00;100.00;98071.47;7402425;19;20400;-90
2023/12/16 07:58:02;;;;;;;34.00;23.00;;;;;;;5.00;100.00;98091.50;7402835;19;20409;-90
2023/12/16 08:00:30;;;;;;;31.60;21.70;;;;;;;4.48;100.00;98032.03;7402362;19;20393;-90
2023/12/16 08:02:57;;;;;;;23.30;18.60;;;;;;;4.74;100.00;98098.56;7399897;19;20495;-90
2023/12/16 08:05:25;;;;;;;31.90;20.90;;;;;;;4.47;100.00;98047.84;7401814;19;20384;-90
2023/12/16 08:07:52;;;;;;;28.57;20.40;;;;;;;4.52;100.00;98049.81;7402470;19;20858;-90
2023/12/16 08:10:20;;;;;;;81.00;54.13;;;;;;;5.41;100.00;98148.06;7401749;19;20372;-90
2023/12/16 08:12:48;;;;;;;29.10;21.40;;;;;;;4.84;100.00;98027.84;7399033;19;20503;-90
2023/12/16 08:15:16;;;;;;;43.10;29.57;;;;;;;4.88;100.00;98036.00;7401862;19;20686;-90
2023/12/16 08:17:43;;;;;;;26.93;20.10;;;;;;;5.04;100.00;98038.03;7401323;19;20369;-90
2023/12/16 08:20:19;;;;;;;28.53;18.43;;;;;;;5.34;100.00;98056.25;7401662;19;20866;-90
2023/12/16 08:22:46;;;;;;;30.67;19.47;;;;;;;5.81;100.00;98122.31;7398908;19;20412;-90
2023/12/16 08:25:14;;;;;;;21.33;18.47;;;;;;;5.17;100.00;98014.44;7399138;19;20384;-90
2023/12/16 08:27:42;;;;;;;23.57;18.50;;;;;;;5.16;100.00;97999.81;7400845;19;20444;-90
2023/12/16 08:30:10;;;;;;;30.83;22.20;;;;;;;5.35;100.00;98021.38;7400813;19;20452;-89
2023/12/16 08:32:37;;;;;;;30.53;22.60;;;;;;;5.43;100.00;98036.69;7398555;19;20913;-89
2023/12/16 08:35:05;;;;;;;29.80;20.20;;;;;;;5.53;100.00;98055.19;7400630;19;20381;-89
2023/12/16 08:37:33;;;;;;;32.60;23.77;;;;;;;5.79;100.00;98100.09;7401227;19;20380;-90
2023/12/16 08:40:00;;;;;;;30.47;20.20;;;;;;;5.04;100.00;97972.97;7398219;19;20862;-89
2023/12/16 08:42:28;;;;;;;23.50;17.43;;;;;;;5.76;100.00;98069.28;7398520;19;20409;-89
2023/12/16 08:44:55;;;;;;;24.17;17.93;;;;;;;5.91;100.00;98114.75;7400249;19;20376;-89
2023/12/16 08:47:23;;;;;;;30.83;17.90;;;;;;;5.54;100.00;98045.56;7400350;19;20408;-90
2023/12/16 08:49:51;;;;;;;20.93;15.70;;;;;;;6.24;100.00;98150.78;7400211;19;20854;-89
2023/12/16 08:52:18;;;;;;;26.27;16.77;;;;;;;5.68;100.00;98073.78;7399149;19;20437;-89
2023/12/16 08:54:46;;;;;;;25.90;17.13;;;;;;;5.56;100.00;98082.59;7400194;19;20365;-89
2023/12/16 08:57:13;;;;;;;24.67;15.83;;;;;;;5.26;100.00;98074.78;7400018;19;20383;-89
2023/12/16 08:59:41;;;;;;;29.87;17.57;;;;;;;5.41;100.00;98077.78;7399911;19;20394;-89
2023/12/16 09:02:08;;;;;;;18.53;13.60;;;;;;;4.65;100.00;97977.66;7398600;19;20397;-89
2023/12/16 09:04:36;;;;;;;28.93;14.13;;;;;;;5.08;100.00;98081.59;7400166;19;20444;-90
2023/12/16 09:07:03;;;;;;;23.23;14.33;;;;;;;5.17;100.00;98092.50;7401998;19;20385;-89
2023/12/16 09:09:31;;;;;;;27.50;14.70;;;;;;;5.12;100.00;98087.16;7400192;19;20403;-89
2023/12/16 09:11:58;;;;;;;23.40;15.83;;;;;;;5.87;100.00;98183.19;7398477;19;20429;-89
2023/12/16 09:14:26;;;;;;;19.63;13.80;;;;;;;5.60;100.00;98149.66;7399443;19;20842;-89
2023/12/16 09:16:53;;;;;;;15.50;12.10;;;;;;;5.39;100.00;98127.47;7402460;19;20377;-88
2023/12/16 09:19:22;;;;;;;18.10;12.87;;;;;;;4.82;100.00;98027.28;7398270;19;20387;-88
2023/12/16 09:21:50;;;;;;;24.10;14.60;;;;;;;5.61;100.00;98119.19;7396561;19;20945;-88
2023/12/16 09:24:17;;;;;;;23.47;13.60;;;;;;;5.64;100.00;98087.50;7398787;19;20400;-88
2023/12/16 09:26:45;;;;;;;20.07;15.30;;;;;;;6.01;100.00;98140.28;7399470;19;20376;-88
2023/12/16 09:29:13;;;;;;;23.50;15.27;;;;;;;6.32;100.00;98178.31;7399062;19;20369;-88
2023/12/16 09:31:42;;;;;;;21.57;13.50;;;;;;;6.00;100.00;98130.09;7399977;19;20692;-88
2023/12/16 09:34:10;;;;;;;20.17;14.33;;;;;;;6.19;100.00;98147.22;7396931;19;21000;-88
2023/12/16 09:36:37;;;;;;;23.70;15.47;;;;;;;5.94;100.00;98097.88;7399270;19;20380;-88
2023/12/16 09:39:04;;;;;;;21.27;16.00;;;;;;;6.70;100.00;98204.03;7397947;19;20762;-88
2023/12/16 09:41:32;;;;;;;21.40;13.67;;;;;;;5.41;100.00;98004.06;7397778;19;20396;-88
2023/12/16 09:44:00;;;;;;;23.60;17.00;;;;;;;6.06;100.00;98095.28;7398181;19;21190;-88
2023/12/16 09:46:29;;;;;;;25.10;15.90;;;;;;;5.79;100.00;98064.41;7399057;19;20426;-88
2023/12/16 09:48:59;;;;;;;23.13;17.83;;;;;;;6.35;100.00;98151.78;7398391;19;20381;-88
2023/12/16 09:51:28;;;;;;;21.60;14.00;;;;;;;5.97;100.00;98085.22;7398486;19;20432;-88
2023/12/16 09:53:55;;;;;;;20.40;13.60;;;;;;;5.98;100.00;98065.94;7396907;19;20461;-88
2023/12/16 09:56:23;;;;;;;27.40;15.03;;;;;;;5.87;100.00;98050.28;7398043;19;20675;-88
2023/12/16 09:58:54;;;;;;;22.10;14.00;;;;;;;5.69;100.00;97994.63;7398926;19;20456;-88
2023/12/16 10:01:21;;;;;;;15.30;12.10;;;;;;;6.37;100.00;98105.44;7397996;19;20421;-88
2023/12/16 10:03:49;;;;;;;20.10;12.00;;;;;;;6.07;100.00;98073.41;7398034;19;20401;-88
2023/12/16 10:06:17;;;;;;;21.57;13.67;;;;;;;6.61;100.00;98152.38;7398095;19;20471;-88
2023/12/16 10:08:44;;;;;;;21.37;14.07;;;;;;;5.93;100.00;98052.00;7397784;19;20677;-88
2023/12/16 10:11:14;;;;;;;24.00;14.47;;;;;;;6.26;100.00;98108.81;7399219;19;20381;-94
2023/12/16 10:14:05;;;;;;;28.13;16.30;;;;;;;6.70;100.00;98143.22;7399199;19;20394;-96
2023/12/16 10:16:34;;;;;;;19.13;11.43;;;;;;;6.76;100.00;98163.16;7400070;19;20396;-96
2023/12/16 10:19:03;;;;;;;19.17;12.27;;;;;;;5.79;100.00;98017.53;7399620;19;20389;-94
2023/12/16 10:21:34;;;;;;;21.67;14.57;;;;;;;6.54;100.00;98101.13;7398815;19;20388;-96
2023/12/16 10:24:10;;;;;;;21.60;13.00;;;;;;;7.06;100.00;98181.34;7398844;19;20404;-96
2023/12/16 10:26:47;;;;;;;18.90;12.17;;;;;;;7.22;100.00;98204.13;7401989;19;20689;-96
2023/12/16 10:29:18;;;;;;;19.73;11.53;;;;;;;7.21;100.00;98179.03;7400837;19;20390;-96
2023/12/16 10:31:45;;;;;;;21.80;13.20;;;;;;;6.32;100.00;98039.31;7399023;19;20409;-96
2023/12/16 10:34:21;;;;;;;22.27;14.00;;;;;;;6.60;100.00;98080.34;7397719;19;20379;-96
2023/12/16 10:37:04;;;;;;;12.40;10.73;;;;;;;6.96;100.00;98123.69;7398605;19;20365;-91
2023/12/16 10:39:32;;;;;;;15.70;11.27;;;;;;;6.48;100.00;98041.22;7397151;19;20448;-90
2023/12/16 10:42:03;;;;;;;15.80;10.67;;;;;;;6.76;100.00;98072.63;7397508;19;20447;-90
2023/12/16 10:44:31;;;;;;;17.23;11.60;;;;;;;6.71;100.00;98051.66;7397289;19;20389;-90
2023/12/16 10:46:58;;;;;;;16.07;10.37;;;;;;;6.65;100.00;98039.53;7409587;19;20429;-90
2023/12/16 10:49:37;;;;;;;12.10;9.90;;;;;;;6.34;100.00;97985.91;7421072;19;20369;-90
2023/12/16 10:52:10;;;;;;;17.10;9.03;;;;;;;6.27;100.00;97967.00;7417110;19;20396;-89
2023/12/16 10:54:59;;;;;;;13.80;10.67;;;;;;;6.50;100.00;97977.41;7411599;19;20384;-88
2023/12/16 10:57:48;;;;;;;13.93;10.27;;;;;;;6.80;100.00;98033.84;7397853;19;20436;-90
2023/12/16 11:00:23;;;;;;;9.70;8.80;;;;;;;6.40;100.00;97958.16;7397070;19;20376;-90
2023/12/16 11:03:22;;;;;;;14.63;9.73;;;;;;;6.79;100.00;98011.38;7395913;19;20401;-90
2023/12/16 11:05:53;;;;;;;13.13;10.73;;;;;;;7.07;100.00;98028.88;7397150;19;20381;-90
2023/12/16 11:08:21;;;;;;;13.53;8.33;;;;;;;6.19;100.00;97897.75;7396780;19;20381;-90
2023/12/16 11:10:53;;;;;;;12.43;8.50;;;;;;;6.27;100.00;97904.44;7397112;19;20389;-90
2023/12/16 11:13:21;;;;;;;15.40;9.60;;;;;;;6.15;100.00;97896.63;7396137;19;20419;-90
2023/12/16 11:15:58;;;;;;;16.27;9.73;;;;;;;5.83;100.00;97864.94;7398163;19;20365;-90
2023/12/16 11:18:29;;;;;;;17.80;9.90;;;;;;;5.97;100.00;97894.16;7396911;19;20392;-90
2023/12/16 11:21:04;;;;;;;18.67;8.90;;;;;;;6.77;100.00;98023.84;7396536;19;20385;-90
2023/12/16 11:23:34;;;;;;;18.20;9.20;;;;;;;6.09;100.00;97912.38;7396789;19;20671;-90
2023/12/16 11:26:02;;;;;;;12.70;8.23;;;;;;;7.60;100.00;98147.94;7397186;19;20470;-90